Franklin, Tennessee
Current Conditions -  °F | °C
As of 4:53 AM on Thursday 18 Dec 2014 (Local Time) from KBNA Reporting Station
Light Rain Light Rain  
Wind Chill: -2°   Ceiling: 8000
Heat Index:   Visibility: 6mi
Dew Point: -1°   Wind: 5mph
Humidity: 92%   Direction: 80°E
Pressure: 30.26"   Gusts: NA
Location:  35.92°N, 86.87°W
Report Text: KBNA 181053Z 08004KT 6SM -RA BR OVC080 01/M01 A3026 RMK AO2 SLP249 P0003 T00061006
Loading
Personal Weather Stations






























Interactive Weather Map New forecast layout! Learn more

10-Day Weather Forecast

Advertisements
Track Severe Weather on mobile